Weather at O'Loughlin Airstrip

Public forecast

Using degrees Celsius for public forecast. Weather courtesy of forecast.io.

Closest aviation weather report (METAR) to O'Loughlin Airstrip

Closest report is Casement Air Base, 21.9 nm (40.5 km) ENE.

2024/05/26 18:00 (retrieved 55 minutes ago)

EIME 261800Z 25008KT 7000 -SHRA FEW011 SCT018CB BKN050 11/10 Q1008

Closest aviation forecast (TAF) to O'Loughlin Airstrip

Closest forecast is Dublin Airport, 31.3 nm (57.9 km) ENE.

2024/05/26 18:11 (retrieved 44 minutes ago)

TAF EIDW 261700Z 2618/2718 25008KT 9999 FEW008 BKN050 TEMPO 2618/2620 -SHRA FEW018CB PROB30 TEMPO 2618/2619 4000 SHRA SCT018CB BECMG 2716/2718 21007KT PROB40 TEMPO 2715/2718 -SHRA FEW022CB